Terminal Aerodrome Forecast
Issued by NWS Newport/Morehead City, NC

Home | Current Version | Previous Version | Text Only | Print | Product List | Glossary On
Versions: 1 2 3 4 5 6 7 8 9 10 11 12 13 14 15 16 17 18 19 20 21 22 23 24 25 26
412
FTUS42 KMHX 280540
TAFEWN
TAF
KEWN 280540Z 2806/2906 20005KT P6SM FEW100 BKN250
     FM281900 19009KT P6SM VCTS SCT050CB BKN110
     FM282100 19007KT 6SM SHRA VCTS BKN050CB
     FM290300 20003KT 6SM BR VCSH BKN040=

USA.gov is the U.S. government's official web portal to all federal, state and local government web resources and services.